sensor_id;sensor_type;location;lat;lon;timestamp;P1;durP1;ratioP1;P2;durP2;ratioP2
39656;SDS011;25337;51.478;7.510;2022-08-11T00:02:42;7.30;;;2.53;;
39656;SDS011;25337;51.478;7.510;2022-08-11T00:05:12;7.18;;;2.90;;
39656;SDS011;25337;51.478;7.510;2022-08-11T00:07:52;9.25;;;2.72;;
39656;SDS011;25337;51.478;7.510;2022-08-11T00:10:24;7.72;;;2.72;;
39656;SDS011;25337;51.478;7.510;2022-08-11T00:12:52;7.70;;;2.78;;
39656;SDS011;25337;51.478;7.510;2022-08-11T00:15:21;6.47;;;2.70;;
39656;SDS011;25337;51.478;7.510;2022-08-11T00:17:48;8.63;;;2.60;;
39656;SDS011;25337;51.478;7.510;2022-08-11T00:20:20;9.30;;;2.83;;
39656;SDS011;25337;51.478;7.510;2022-08-11T00:22:47;6.80;;;2.63;;
39656;SDS011;25337;51.478;7.510;2022-08-11T00:25:16;6.55;;;2.63;;
39656;SDS011;25337;51.478;7.510;2022-08-11T00:27:43;7.95;;;2.90;;
39656;SDS011;25337;51.478;7.510;2022-08-11T00:30:12;7.20;;;2.55;;
39656;SDS011;25337;51.478;7.510;2022-08-11T00:32:38;8.60;;;3.03;;
39656;SDS011;25337;51.478;7.510;2022-08-11T00:35:09;7.32;;;2.95;;
39656;SDS011;25337;51.478;7.510;2022-08-11T00:37:37;8.47;;;2.70;;
39656;SDS011;25337;51.478;7.510;2022-08-11T00:40:04;7.78;;;3.30;;
39656;SDS011;25337;51.478;7.510;2022-08-11T00:45:41;11.07;;;3.10;;
39656;SDS011;25337;51.478;7.510;2022-08-11T01:02:43;8.30;;;3.00;;
39656;SDS011;25337;51.478;7.510;2022-08-11T01:11:33;8.55;;;3.20;;
39656;SDS011;25337;51.478;7.510;2022-08-11T01:17:03;8.55;;;3.10;;
39656;SDS011;25337;51.478;7.510;2022-08-11T01:23:15;7.57;;;2.88;;
39656;SDS011;25337;51.478;7.510;2022-08-11T01:28:13;7.30;;;3.08;;
39656;SDS011;25337;51.478;7.510;2022-08-11T01:59:07;7.53;;;3.42;;
39656;SDS011;25337;51.478;7.510;2022-08-11T02:04:38;10.35;;;3.97;;
39656;SDS011;25337;51.478;7.510;2022-08-11T02:09:52;9.45;;;3.92;;
39656;SDS011;25337;51.478;7.510;2022-08-11T02:17:46;10.20;;;4.15;;
39656;SDS011;25337;51.478;7.510;2022-08-11T02:23:44;8.60;;;3.95;;
39656;SDS011;25337;51.478;7.510;2022-08-11T02:26:38;8.93;;;4.10;;
39656;SDS011;25337;51.478;7.510;2022-08-11T02:29:18;10.15;;;4.00;;
39656;SDS011;25337;51.478;7.510;2022-08-11T02:35:27;8.38;;;3.85;;
39656;SDS011;25337;51.478;7.510;2022-08-11T02:40:41;8.95;;;3.85;;
39656;SDS011;25337;51.478;7.510;2022-08-11T02:46:23;10.25;;;4.22;;
39656;SDS011;25337;51.478;7.510;2022-08-11T02:49:07;8.85;;;4.45;;
39656;SDS011;25337;51.478;7.510;2022-08-11T02:54:43;12.00;;;4.53;;
39656;SDS011;25337;51.478;7.510;2022-08-11T02:57:38;11.55;;;4.57;;
39656;SDS011;25337;51.478;7.510;2022-08-11T03:00:08;9.52;;;4.32;;
39656;SDS011;25337;51.478;7.510;2022-08-11T03:05:32;11.48;;;4.80;;
39656;SDS011;25337;51.478;7.510;2022-08-11T03:08:21;10.90;;;4.50;;
39656;SDS011;25337;51.478;7.510;2022-08-11T03:11:10;10.20;;;4.57;;
39656;SDS011;25337;51.478;7.510;2022-08-11T03:26:00;10.15;;;4.22;;
39656;SDS011;25337;51.478;7.510;2022-08-11T03:34:24;9.18;;;4.13;;
39656;SDS011;25337;51.478;7.510;2022-08-11T03:51:22;11.85;;;4.50;;
39656;SDS011;25337;51.478;7.510;2022-08-11T04:07:57;10.60;;;4.75;;
39656;SDS011;25337;51.478;7.510;2022-08-11T04:17:47;12.85;;;4.88;;
39656;SDS011;25337;51.478;7.510;2022-08-11T04:31:15;9.85;;;5.00;;
39656;SDS011;25337;51.478;7.510;2022-08-11T04:36:59;10.60;;;4.63;;
39656;SDS011;25337;51.478;7.510;2022-08-11T05:01:21;10.65;;;5.15;;
39656;SDS011;25337;51.478;7.510;2022-08-11T05:15:17;10.07;;;4.88;;
39656;SDS011;25337;51.478;7.510;2022-08-11T05:18:08;10.73;;;4.97;;
39656;SDS011;25337;51.478;7.510;2022-08-11T05:21:01;14.27;;;5.50;;
39656;SDS011;25337;51.478;7.510;2022-08-11T05:23:52;9.68;;;5.20;;
39656;SDS011;25337;51.478;7.510;2022-08-11T05:26:43;15.13;;;5.45;;
39656;SDS011;25337;51.478;7.510;2022-08-11T05:29:40;12.10;;;4.60;;
39656;SDS011;25337;51.478;7.510;2022-08-11T05:32:33;14.07;;;5.05;;
39656;SDS011;25337;51.478;7.510;2022-08-11T05:35:26;9.82;;;5.07;;
39656;SDS011;25337;51.478;7.510;2022-08-11T05:37:57;9.82;;;4.85;;
39656;SDS011;25337;51.478;7.510;2022-08-11T05:40:47;11.57;;;5.22;;
39656;SDS011;25337;51.478;7.510;2022-08-11T05:43:32;11.15;;;4.72;;
39656;SDS011;25337;51.478;7.510;2022-08-11T05:46:22;10.87;;;5.03;;
39656;SDS011;25337;51.478;7.510;2022-08-11T05:49:10;10.65;;;4.78;;
39656;SDS011;25337;51.478;7.510;2022-08-11T05:51:56;10.20;;;4.75;;
39656;SDS011;25337;51.478;7.510;2022-08-11T05:54:41;10.90;;;4.53;;
39656;SDS011;25337;51.478;7.510;2022-08-11T05:57:30;11.57;;;4.75;;
39656;SDS011;25337;51.478;7.510;2022-08-11T06:00:00;10.60;;;4.25;;
39656;SDS011;25337;51.478;7.510;2022-08-11T06:02:29;9.90;;;4.80;;
39656;SDS011;25337;51.478;7.510;2022-08-11T06:04:56;9.57;;;4.63;;
39656;SDS011;25337;51.478;7.510;2022-08-11T06:07:28;14.13;;;4.45;;
39656;SDS011;25337;51.478;7.510;2022-08-11T06:09:55;9.13;;;4.30;;
39656;SDS011;25337;51.478;7.510;2022-08-11T06:12:24;10.18;;;4.28;;
39656;SDS011;25337;51.478;7.510;2022-08-11T06:14:55;10.80;;;4.55;;
39656;SDS011;25337;51.478;7.510;2022-08-11T06:17:26;9.48;;;4.60;;
39656;SDS011;25337;51.478;7.510;2022-08-11T06:20:03;10.50;;;4.75;;
39656;SDS011;25337;51.478;7.510;2022-08-11T06:22:30;10.38;;;4.47;;
39656;SDS011;25337;51.478;7.510;2022-08-11T06:24:59;10.80;;;4.70;;
39656;SDS011;25337;51.478;7.510;2022-08-11T06:27:26;10.27;;;4.20;;
39656;SDS011;25337;51.478;7.510;2022-08-11T06:29:56;10.13;;;4.45;;
39656;SDS011;25337;51.478;7.510;2022-08-11T06:32:24;11.82;;;4.13;;
39656;SDS011;25337;51.478;7.510;2022-08-11T06:35:35;10.90;;;4.70;;
39656;SDS011;25337;51.478;7.510;2022-08-11T06:38:01;10.70;;;4.13;;
39656;SDS011;25337;51.478;7.510;2022-08-11T06:40:41;15.45;;;4.30;;
39656;SDS011;25337;51.478;7.510;2022-08-11T06:43:50;10.70;;;3.72;;
39656;SDS011;25337;51.478;7.510;2022-08-11T06:46:36;8.55;;;3.92;;
39656;SDS011;25337;51.478;7.510;2022-08-11T06:49:07;11.07;;;4.00;;
39656;SDS011;25337;51.478;7.510;2022-08-11T06:51:55;14.15;;;4.25;;
39656;SDS011;25337;51.478;7.510;2022-08-11T06:54:35;11.48;;;4.30;;
39656;SDS011;25337;51.478;7.510;2022-08-11T06:57:05;10.63;;;4.30;;
39656;SDS011;25337;51.478;7.510;2022-08-11T06:59:51;8.32;;;4.22;;
39656;SDS011;25337;51.478;7.510;2022-08-11T07:02:40;7.97;;;3.65;;
39656;SDS011;25337;51.478;7.510;2022-08-11T07:05:13;10.95;;;4.07;;
39656;SDS011;25337;51.478;7.510;2022-08-11T07:14:11;10.25;;;3.95;;
39656;SDS011;25337;51.478;7.510;2022-08-11T07:17:03;10.15;;;4.32;;
39656;SDS011;25337;51.478;7.510;2022-08-11T07:19:32;12.32;;;4.25;;
39656;SDS011;25337;51.478;7.510;2022-08-11T07:22:17;8.05;;;3.95;;
39656;SDS011;25337;51.478;7.510;2022-08-11T07:25:07;7.97;;;3.85;;
39656;SDS011;25337;51.478;7.510;2022-08-11T07:27:57;12.70;;;4.10;;
39656;SDS011;25337;51.478;7.510;2022-08-11T07:30:45;8.82;;;3.85;;
39656;SDS011;25337;51.478;7.510;2022-08-11T07:33:12;8.00;;;3.90;;
39656;SDS011;25337;51.478;7.510;2022-08-11T07:35:50;7.72;;;3.60;;
39656;SDS011;25337;51.478;7.510;2022-08-11T07:38:22;9.88;;;3.97;;
39656;SDS011;25337;51.478;7.510;2022-08-11T07:41:14;9.50;;;4.00;;
39656;SDS011;25337;51.478;7.510;2022-08-11T07:43:47;8.27;;;4.22;;
39656;SDS011;25337;51.478;7.510;2022-08-11T07:46:16;9.43;;;3.80;;
39656;SDS011;25337;51.478;7.510;2022-08-11T07:49:02;13.55;;;4.10;;
39656;SDS011;25337;51.478;7.510;2022-08-11T07:51:49;9.70;;;4.10;;
39656;SDS011;25337;51.478;7.510;2022-08-11T07:54:35;10.45;;;4.07;;
39656;SDS011;25337;51.478;7.510;2022-08-11T07:57:04;16.63;;;4.00;;
39656;SDS011;25337;51.478;7.510;2022-08-11T07:59:51;16.70;;;4.85;;
39656;SDS011;25337;51.478;7.510;2022-08-11T08:02:36;9.95;;;4.00;;
39656;SDS011;25337;51.478;7.510;2022-08-11T08:05:21;9.40;;;4.10;;
39656;SDS011;25337;51.478;7.510;2022-08-11T08:08:06;12.13;;;4.05;;
39656;SDS011;25337;51.478;7.510;2022-08-11T08:10:52;8.57;;;3.50;;
39656;SDS011;25337;51.478;7.510;2022-08-11T08:13:39;10.95;;;3.80;;
39656;SDS011;25337;51.478;7.510;2022-08-11T08:16:25;10.23;;;4.05;;
39656;SDS011;25337;51.478;7.510;2022-08-11T08:19:14;11.45;;;3.78;;
39656;SDS011;25337;51.478;7.510;2022-08-11T08:21:43;11.15;;;3.88;;
39656;SDS011;25337;51.478;7.510;2022-08-11T08:24:09;11.88;;;3.92;;
39656;SDS011;25337;51.478;7.510;2022-08-11T08:26:36;10.25;;;3.88;;
39656;SDS011;25337;51.478;7.510;2022-08-11T08:29:21;9.45;;;3.30;;
39656;SDS011;25337;51.478;7.510;2022-08-11T08:32:06;11.23;;;3.50;;
39656;SDS011;25337;51.478;7.510;2022-08-11T08:34:35;11.57;;;3.67;;
39656;SDS011;25337;51.478;7.510;2022-08-11T08:37:02;9.38;;;4.00;;
39656;SDS011;25337;51.478;7.510;2022-08-11T08:39:29;13.13;;;3.60;;
39656;SDS011;25337;51.478;7.510;2022-08-11T08:41:58;7.60;;;3.20;;
39656;SDS011;25337;51.478;7.510;2022-08-11T08:44:31;10.23;;;3.50;;
39656;SDS011;25337;51.478;7.510;2022-08-11T08:47:00;9.30;;;3.40;;
39656;SDS011;25337;51.478;7.510;2022-08-11T08:49:32;10.07;;;3.47;;
39656;SDS011;25337;51.478;7.510;2022-08-11T08:52:03;9.98;;;3.40;;
39656;SDS011;25337;51.478;7.510;2022-08-11T08:54:37;7.47;;;3.22;;
39656;SDS011;25337;51.478;7.510;2022-08-11T08:57:06;7.45;;;2.97;;
39656;SDS011;25337;51.478;7.510;2022-08-11T08:59:35;7.03;;;3.10;;
39656;SDS011;25337;51.478;7.510;2022-08-11T09:02:04;8.52;;;3.20;;
39656;SDS011;25337;51.478;7.510;2022-08-11T09:04:31;8.32;;;3.20;;
39656;SDS011;25337;51.478;7.510;2022-08-11T09:06:58;11.85;;;3.13;;
39656;SDS011;25337;51.478;7.510;2022-08-11T09:09:30;8.77;;;3.28;;
39656;SDS011;25337;51.478;7.510;2022-08-11T09:11:56;14.98;;;3.40;;
39656;SDS011;25337;51.478;7.510;2022-08-11T09:14:23;7.82;;;3.13;;
39656;SDS011;25337;51.478;7.510;2022-08-11T09:17:25;8.65;;;3.15;;
39656;SDS011;25337;51.478;7.510;2022-08-11T09:19:54;11.00;;;3.17;;
39656;SDS011;25337;51.478;7.510;2022-08-11T09:22:25;7.97;;;3.30;;
39656;SDS011;25337;51.478;7.510;2022-08-11T09:25:10;8.55;;;2.90;;
39656;SDS011;25337;51.478;7.510;2022-08-11T09:27:56;8.23;;;3.03;;
39656;SDS011;25337;51.478;7.510;2022-08-11T09:30:23;10.20;;;3.33;;
39656;SDS011;25337;51.478;7.510;2022-08-11T09:32:54;12.68;;;3.35;;
39656;SDS011;25337;51.478;7.510;2022-08-11T09:35:27;8.27;;;3.25;;
39656;SDS011;25337;51.478;7.510;2022-08-11T09:37:54;13.10;;;3.45;;
39656;SDS011;25337;51.478;7.510;2022-08-11T09:40:44;9.52;;;3.00;;
39656;SDS011;25337;51.478;7.510;2022-08-11T09:43:12;9.20;;;3.30;;
39656;SDS011;25337;51.478;7.510;2022-08-11T09:45:59;9.13;;;4.00;;
39656;SDS011;25337;51.478;7.510;2022-08-11T09:48:26;8.40;;;3.13;;
39656;SDS011;25337;51.478;7.510;2022-08-11T09:50:55;14.32;;;2.95;;
39656;SDS011;25337;51.478;7.510;2022-08-11T09:53:23;10.40;;;3.00;;
39656;SDS011;25337;51.478;7.510;2022-08-11T09:55:51;7.95;;;3.20;;
39656;SDS011;25337;51.478;7.510;2022-08-11T09:58:18;8.05;;;2.92;;
39656;SDS011;25337;51.478;7.510;2022-08-11T10:00:44;7.35;;;3.05;;
39656;SDS011;25337;51.478;7.510;2022-08-11T10:03:22;9.40;;;3.00;;
39656;SDS011;25337;51.478;7.510;2022-08-11T10:05:52;10.50;;;3.20;;
39656;SDS011;25337;51.478;7.510;2022-08-11T10:08:41;7.75;;;3.15;;
39656;SDS011;25337;51.478;7.510;2022-08-11T10:11:08;7.45;;;3.10;;
39656;SDS011;25337;51.478;7.510;2022-08-11T10:13:40;12.80;;;3.00;;
39656;SDS011;25337;51.478;7.510;2022-08-11T10:16:27;8.75;;;3.22;;
39656;SDS011;25337;51.478;7.510;2022-08-11T10:18:54;9.60;;;3.05;;
39656;SDS011;25337;51.478;7.510;2022-08-11T10:23:52;10.32;;;3.00;;
39656;SDS011;25337;51.478;7.510;2022-08-11T10:26:37;13.82;;;3.28;;
39656;SDS011;25337;51.478;7.510;2022-08-11T10:29:30;8.68;;;3.00;;
39656;SDS011;25337;51.478;7.510;2022-08-11T10:32:20;6.88;;;2.80;;
39656;SDS011;25337;51.478;7.510;2022-08-11T10:35:07;7.72;;;3.22;;
39656;SDS011;25337;51.478;7.510;2022-08-11T10:37:36;6.70;;;3.00;;
39656;SDS011;25337;51.478;7.510;2022-08-11T10:40:06;9.75;;;3.10;;
39656;SDS011;25337;51.478;7.510;2022-08-11T10:42:33;8.02;;;3.03;;
39656;SDS011;25337;51.478;7.510;2022-08-11T10:45:18;7.47;;;2.83;;
39656;SDS011;25337;51.478;7.510;2022-08-11T10:48:03;7.13;;;2.75;;
39656;SDS011;25337;51.478;7.510;2022-08-11T10:50:30;7.35;;;3.22;;
39656;SDS011;25337;51.478;7.510;2022-08-11T10:53:16;9.25;;;3.47;;
39656;SDS011;25337;51.478;7.510;2022-08-11T10:56:01;7.13;;;3.28;;
39656;SDS011;25337;51.478;7.510;2022-08-11T10:58:46;6.45;;;2.80;;
39656;SDS011;25337;51.478;7.510;2022-08-11T11:01:18;6.80;;;2.80;;
39656;SDS011;25337;51.478;7.510;2022-08-11T11:03:51;12.00;;;3.15;;
39656;SDS011;25337;51.478;7.510;2022-08-11T11:06:27;8.32;;;2.80;;
39656;SDS011;25337;51.478;7.510;2022-08-11T11:09:33;7.00;;;3.10;;
39656;SDS011;25337;51.478;7.510;2022-08-11T11:12:33;10.02;;;2.95;;
39656;SDS011;25337;51.478;7.510;2022-08-11T11:15:19;10.13;;;3.22;;
39656;SDS011;25337;51.478;7.510;2022-08-11T11:18:24;8.57;;;2.97;;
39656;SDS011;25337;51.478;7.510;2022-08-11T11:23:55;9.80;;;2.92;;
39656;SDS011;25337;51.478;7.510;2022-08-11T11:36:57;9.50;;;3.00;;
39656;SDS011;25337;51.478;7.510;2022-08-11T11:39:26;7.97;;;3.33;;
39656;SDS011;25337;51.478;7.510;2022-08-11T11:41:53;8.15;;;3.10;;
39656;SDS011;25337;51.478;7.510;2022-08-11T11:44:21;9.32;;;3.80;;
39656;SDS011;25337;51.478;7.510;2022-08-11T11:46:47;7.63;;;3.20;;
39656;SDS011;25337;51.478;7.510;2022-08-11T11:49:18;10.20;;;3.10;;
39656;SDS011;25337;51.478;7.510;2022-08-11T11:51:47;5.75;;;2.60;;
39656;SDS011;25337;51.478;7.510;2022-08-11T11:54:22;9.30;;;3.20;;
39656;SDS011;25337;51.478;7.510;2022-08-11T11:56:51;9.18;;;3.40;;
39656;SDS011;25337;51.478;7.510;2022-08-11T11:59:21;7.22;;;3.00;;
39656;SDS011;25337;51.478;7.510;2022-08-11T12:02:08;8.32;;;3.13;;
39656;SDS011;25337;51.478;7.510;2022-08-11T12:04:38;8.88;;;2.83;;
39656;SDS011;25337;51.478;7.510;2022-08-11T12:07:07;8.57;;;2.90;;
39656;SDS011;25337;51.478;7.510;2022-08-11T12:09:52;7.65;;;2.88;;
39656;SDS011;25337;51.478;7.510;2022-08-11T12:12:19;12.13;;;3.40;;
39656;SDS011;25337;51.478;7.510;2022-08-11T12:15:05;7.75;;;2.97;;
39656;SDS011;25337;51.478;7.510;2022-08-11T12:17:33;11.52;;;2.92;;
39656;SDS011;25337;51.478;7.510;2022-08-11T12:20:00;8.53;;;2.80;;
39656;SDS011;25337;51.478;7.510;2022-08-11T12:22:28;6.88;;;2.88;;
39656;SDS011;25337;51.478;7.510;2022-08-11T12:25:13;6.80;;;3.00;;
39656;SDS011;25337;51.478;7.510;2022-08-11T12:27:57;8.93;;;3.10;;
39656;SDS011;25337;51.478;7.510;2022-08-11T12:30:23;8.18;;;3.17;;
39656;SDS011;25337;51.478;7.510;2022-08-11T12:32:49;10.45;;;3.17;;
39656;SDS011;25337;51.478;7.510;2022-08-11T12:35:16;9.60;;;3.00;;
39656;SDS011;25337;51.478;7.510;2022-08-11T12:37:44;6.80;;;2.85;;
39656;SDS011;25337;51.478;7.510;2022-08-11T12:40:14;7.32;;;2.72;;
39656;SDS011;25337;51.478;7.510;2022-08-11T12:43:05;6.65;;;2.92;;
39656;SDS011;25337;51.478;7.510;2022-08-11T12:45:56;5.97;;;2.72;;
39656;SDS011;25337;51.478;7.510;2022-08-11T12:48:30;7.18;;;2.90;;
39656;SDS011;25337;51.478;7.510;2022-08-11T12:51:23;10.30;;;2.95;;
39656;SDS011;25337;51.478;7.510;2022-08-11T12:56:59;8.30;;;3.30;;
39656;SDS011;25337;51.478;7.510;2022-08-11T13:00:01;7.22;;;2.95;;
39656;SDS011;25337;51.478;7.510;2022-08-11T13:02:50;7.18;;;2.92;;
39656;SDS011;25337;51.478;7.510;2022-08-11T13:05:35;8.82;;;3.00;;
39656;SDS011;25337;51.478;7.510;2022-08-11T13:08:01;11.15;;;3.00;;
39656;SDS011;25337;51.478;7.510;2022-08-11T13:10:28;8.40;;;3.20;;
39656;SDS011;25337;51.478;7.510;2022-08-11T13:13:16;7.13;;;2.70;;
39656;SDS011;25337;51.478;7.510;2022-08-11T13:15:46;8.07;;;2.90;;
39656;SDS011;25337;51.478;7.510;2022-08-11T13:18:17;9.75;;;2.90;;
39656;SDS011;25337;51.478;7.510;2022-08-11T13:20:47;7.57;;;2.80;;
39656;SDS011;25337;51.478;7.510;2022-08-11T13:23:16;7.43;;;3.10;;
39656;SDS011;25337;51.478;7.510;2022-08-11T13:25:43;6.25;;;3.00;;
39656;SDS011;25337;51.478;7.510;2022-08-11T13:28:09;7.72;;;3.10;;
39656;SDS011;25337;51.478;7.510;2022-08-11T13:30:36;7.35;;;2.95;;
39656;SDS011;25337;51.478;7.510;2022-08-11T13:33:21;6.57;;;2.60;;
39656;SDS011;25337;51.478;7.510;2022-08-11T13:35:48;11.95;;;2.92;;
39656;SDS011;25337;51.478;7.510;2022-08-11T13:40:43;6.03;;;2.80;;
39656;SDS011;25337;51.478;7.510;2022-08-11T13:43:12;8.18;;;3.05;;
39656;SDS011;25337;51.478;7.510;2022-08-11T13:45:38;7.07;;;2.90;;
39656;SDS011;25337;51.478;7.510;2022-08-11T13:48:08;8.75;;;3.17;;
39656;SDS011;25337;51.478;7.510;2022-08-11T13:50:35;6.85;;;2.80;;
39656;SDS011;25337;51.478;7.510;2022-08-11T13:53:22;6.22;;;2.70;;
39656;SDS011;25337;51.478;7.510;2022-08-11T13:55:49;5.53;;;2.70;;
39656;SDS011;25337;51.478;7.510;2022-08-11T13:58:15;8.07;;;2.95;;
39656;SDS011;25337;51.478;7.510;2022-08-11T14:00:43;9.13;;;2.95;;
39656;SDS011;25337;51.478;7.510;2022-08-11T14:03:12;10.05;;;3.30;;
39656;SDS011;25337;51.478;7.510;2022-08-11T14:05:45;11.63;;;3.20;;
39656;SDS011;25337;51.478;7.510;2022-08-11T14:08:15;6.22;;;2.92;;
39656;SDS011;25337;51.478;7.510;2022-08-11T14:10:42;6.53;;;3.05;;
39656;SDS011;25337;51.478;7.510;2022-08-11T14:13:11;6.72;;;2.80;;
39656;SDS011;25337;51.478;7.510;2022-08-11T14:16:00;6.38;;;2.85;;
39656;SDS011;25337;51.478;7.510;2022-08-11T14:18:29;6.45;;;2.80;;
39656;SDS011;25337;51.478;7.510;2022-08-11T14:20:57;6.07;;;3.00;;
39656;SDS011;25337;51.478;7.510;2022-08-11T14:23:47;9.18;;;3.08;;
39656;SDS011;25337;51.478;7.510;2022-08-11T14:26:15;7.40;;;2.85;;
39656;SDS011;25337;51.478;7.510;2022-08-11T14:31:39;6.30;;;3.00;;
39656;SDS011;25337;51.478;7.510;2022-08-11T14:34:19;7.85;;;2.85;;
39656;SDS011;25337;51.478;7.510;2022-08-11T14:36:47;15.07;;;3.00;;
39656;SDS011;25337;51.478;7.510;2022-08-11T14:39:20;8.02;;;2.90;;
39656;SDS011;25337;51.478;7.510;2022-08-11T14:41:49;6.85;;;2.88;;
39656;SDS011;25337;51.478;7.510;2022-08-11T14:44:44;8.15;;;2.90;;
39656;SDS011;25337;51.478;7.510;2022-08-11T14:47:32;6.20;;;2.83;;
39656;SDS011;25337;51.478;7.510;2022-08-11T14:52:26;6.82;;;3.30;;
39656;SDS011;25337;51.478;7.510;2022-08-11T14:54:54;8.93;;;3.38;;
39656;SDS011;25337;51.478;7.510;2022-08-11T14:57:39;7.20;;;3.00;;
39656;SDS011;25337;51.478;7.510;2022-08-11T15:00:07;11.45;;;3.40;;
39656;SDS011;25337;51.478;7.510;2022-08-11T15:02:39;8.85;;;3.13;;
39656;SDS011;25337;51.478;7.510;2022-08-11T15:05:25;6.55;;;3.10;;
39656;SDS011;25337;51.478;7.510;2022-08-11T15:07:52;8.13;;;3.42;;
39656;SDS011;25337;51.478;7.510;2022-08-11T15:10:19;9.48;;;3.42;;
39656;SDS011;25337;51.478;7.510;2022-08-11T15:12:47;7.28;;;3.40;;
39656;SDS011;25337;51.478;7.510;2022-08-11T15:15:13;7.40;;;3.40;;
39656;SDS011;25337;51.478;7.510;2022-08-11T15:18:00;7.65;;;3.00;;
39656;SDS011;25337;51.478;7.510;2022-08-11T15:20:29;9.77;;;2.90;;
39656;SDS011;25337;51.478;7.510;2022-08-11T15:23:14;7.43;;;3.42;;
39656;SDS011;25337;51.478;7.510;2022-08-11T15:28:30;9.05;;;3.35;;
39656;SDS011;25337;51.478;7.510;2022-08-11T15:31:19;10.00;;;3.00;;
39656;SDS011;25337;51.478;7.510;2022-08-11T15:34:06;11.55;;;3.40;;
39656;SDS011;25337;51.478;7.510;2022-08-11T15:36:57;9.13;;;3.30;;
39656;SDS011;25337;51.478;7.510;2022-08-11T15:42:38;7.75;;;3.17;;
39656;SDS011;25337;51.478;7.510;2022-08-11T15:45:28;7.63;;;3.15;;
39656;SDS011;25337;51.478;7.510;2022-08-11T15:53:46;11.32;;;3.33;;
39656;SDS011;25337;51.478;7.510;2022-08-11T15:56:16;8.18;;;3.05;;
39656;SDS011;25337;51.478;7.510;2022-08-11T15:58:44;7.40;;;3.53;;
39656;SDS011;25337;51.478;7.510;2022-08-11T16:01:33;7.68;;;3.40;;
39656;SDS011;25337;51.478;7.510;2022-08-11T16:04:21;7.57;;;3.13;;
39656;SDS011;25337;51.478;7.510;2022-08-11T16:07:01;12.23;;;3.17;;
39656;SDS011;25337;51.478;7.510;2022-08-11T16:09:36;9.07;;;3.53;;
39656;SDS011;25337;51.478;7.510;2022-08-11T16:12:08;12.02;;;3.40;;
39656;SDS011;25337;51.478;7.510;2022-08-11T16:14:41;9.70;;;3.05;;
39656;SDS011;25337;51.478;7.510;2022-08-11T16:17:29;8.25;;;3.42;;
39656;SDS011;25337;51.478;7.510;2022-08-11T16:19:58;8.23;;;3.30;;
39656;SDS011;25337;51.478;7.510;2022-08-11T16:22:28;8.90;;;3.25;;
39656;SDS011;25337;51.478;7.510;2022-08-11T16:25:06;6.90;;;3.35;;
39656;SDS011;25337;51.478;7.510;2022-08-11T16:27:37;6.80;;;3.40;;
39656;SDS011;25337;51.478;7.510;2022-08-11T16:30:07;12.02;;;3.58;;
39656;SDS011;25337;51.478;7.510;2022-08-11T16:32:35;10.07;;;3.45;;
39656;SDS011;25337;51.478;7.510;2022-08-11T16:35:08;8.43;;;3.20;;
39656;SDS011;25337;51.478;7.510;2022-08-11T16:37:54;7.75;;;3.38;;
39656;SDS011;25337;51.478;7.510;2022-08-11T16:40:40;7.30;;;3.20;;
39656;SDS011;25337;51.478;7.510;2022-08-11T16:43:08;8.32;;;3.30;;
39656;SDS011;25337;51.478;7.510;2022-08-11T16:45:57;9.52;;;3.40;;
39656;SDS011;25337;51.478;7.510;2022-08-11T16:48:44;7.28;;;3.30;;
39656;SDS011;25337;51.478;7.510;2022-08-11T16:51:12;10.00;;;3.58;;
39656;SDS011;25337;51.478;7.510;2022-08-11T16:53:44;8.18;;;3.72;;
39656;SDS011;25337;51.478;7.510;2022-08-11T16:56:11;16.17;;;8.98;;
39656;SDS011;25337;51.478;7.510;2022-08-11T16:58:42;10.35;;;4.22;;
39656;SDS011;25337;51.478;7.510;2022-08-11T17:01:27;11.75;;;4.00;;
39656;SDS011;25337;51.478;7.510;2022-08-11T17:03:56;7.13;;;3.45;;
39656;SDS011;25337;51.478;7.510;2022-08-11T17:06:45;9.75;;;3.60;;
39656;SDS011;25337;51.478;7.510;2022-08-11T17:09:31;8.32;;;3.55;;
39656;SDS011;25337;51.478;7.510;2022-08-11T17:12:18;10.45;;;3.42;;
39656;SDS011;25337;51.478;7.510;2022-08-11T17:15:06;10.43;;;3.78;;
39656;SDS011;25337;51.478;7.510;2022-08-11T17:17:57;7.32;;;3.50;;
39656;SDS011;25337;51.478;7.510;2022-08-11T17:20:26;6.85;;;3.75;;
39656;SDS011;25337;51.478;7.510;2022-08-11T17:22:53;8.38;;;4.05;;
39656;SDS011;25337;51.478;7.510;2022-08-11T17:25:39;9.25;;;3.60;;
39656;SDS011;25337;51.478;7.510;2022-08-11T17:28:06;10.00;;;4.57;;
39656;SDS011;25337;51.478;7.510;2022-08-11T17:30:32;11.82;;;5.43;;
39656;SDS011;25337;51.478;7.510;2022-08-11T17:33:17;24.05;;;15.65;;
39656;SDS011;25337;51.478;7.510;2022-08-11T17:36:04;24.77;;;12.40;;
39656;SDS011;25337;51.478;7.510;2022-08-11T17:38:31;13.68;;;7.00;;
39656;SDS011;25337;51.478;7.510;2022-08-11T17:41:00;10.55;;;4.30;;
39656;SDS011;25337;51.478;7.510;2022-08-11T17:43:45;13.38;;;5.00;;
39656;SDS011;25337;51.478;7.510;2022-08-11T17:46:30;10.43;;;4.90;;
39656;SDS011;25337;51.478;7.510;2022-08-11T17:49:16;10.82;;;5.25;;
39656;SDS011;25337;51.478;7.510;2022-08-11T17:51:44;10.82;;;4.57;;
39656;SDS011;25337;51.478;7.510;2022-08-11T17:54:32;13.43;;;4.82;;
39656;SDS011;25337;51.478;7.510;2022-08-11T17:57:19;9.77;;;4.07;;
39656;SDS011;25337;51.478;7.510;2022-08-11T18:00:06;13.07;;;5.05;;
39656;SDS011;25337;51.478;7.510;2022-08-11T18:05:19;11.90;;;3.58;;
39656;SDS011;25337;51.478;7.510;2022-08-11T18:10:34;10.05;;;3.90;;
39656;SDS011;25337;51.478;7.510;2022-08-11T18:13:20;8.10;;;3.60;;
39656;SDS011;25337;51.478;7.510;2022-08-11T18:16:09;11.63;;;4.30;;
39656;SDS011;25337;51.478;7.510;2022-08-11T18:18:53;8.10;;;3.90;;
39656;SDS011;25337;51.478;7.510;2022-08-11T18:21:40;11.68;;;4.05;;
39656;SDS011;25337;51.478;7.510;2022-08-11T18:24:26;6.82;;;3.78;;
39656;SDS011;25337;51.478;7.510;2022-08-11T18:27:15;11.35;;;4.30;;
39656;SDS011;25337;51.478;7.510;2022-08-11T18:30:03;11.57;;;3.90;;
39656;SDS011;25337;51.478;7.510;2022-08-11T18:32:48;11.23;;;3.88;;
39656;SDS011;25337;51.478;7.510;2022-08-11T18:35:37;9.25;;;3.70;;
39656;SDS011;25337;51.478;7.510;2022-08-11T18:38:24;10.73;;;3.97;;
39656;SDS011;25337;51.478;7.510;2022-08-11T18:41:11;8.30;;;3.88;;
39656;SDS011;25337;51.478;7.510;2022-08-11T18:43:58;9.32;;;3.72;;
39656;SDS011;25337;51.478;7.510;2022-08-11T18:46:46;9.57;;;3.97;;
39656;SDS011;25337;51.478;7.510;2022-08-11T18:49:34;11.35;;;3.97;;
39656;SDS011;25337;51.478;7.510;2022-08-11T18:52:21;10.57;;;4.40;;
39656;SDS011;25337;51.478;7.510;2022-08-11T18:55:07;7.63;;;3.95;;
39656;SDS011;25337;51.478;7.510;2022-08-11T18:57:54;10.70;;;4.50;;
39656;SDS011;25337;51.478;7.510;2022-08-11T19:00:40;8.70;;;4.13;;
39656;SDS011;25337;51.478;7.510;2022-08-11T19:03:26;7.93;;;4.45;;
39656;SDS011;25337;51.478;7.510;2022-08-11T19:06:13;11.63;;;4.20;;
39656;SDS011;25337;51.478;7.510;2022-08-11T19:09:01;8.40;;;4.30;;
39656;SDS011;25337;51.478;7.510;2022-08-11T19:11:47;11.90;;;4.68;;
39656;SDS011;25337;51.478;7.510;2022-08-11T19:14:32;8.98;;;4.57;;
39656;SDS011;25337;51.478;7.510;2022-08-11T19:17:19;8.45;;;4.60;;
39656;SDS011;25337;51.478;7.510;2022-08-11T19:20:07;10.90;;;4.70;;
39656;SDS011;25337;51.478;7.510;2022-08-11T19:22:55;7.40;;;4.23;;
39656;SDS011;25337;51.478;7.510;2022-08-11T19:25:42;13.60;;;5.10;;
39656;SDS011;25337;51.478;7.510;2022-08-11T19:28:28;10.13;;;5.35;;
39656;SDS011;25337;51.478;7.510;2022-08-11T19:31:14;10.20;;;4.65;;
39656;SDS011;25337;51.478;7.510;2022-08-11T19:33:59;9.45;;;4.65;;
39656;SDS011;25337;51.478;7.510;2022-08-11T19:36:44;8.73;;;5.25;;
39656;SDS011;25337;51.478;7.510;2022-08-11T19:39:30;9.82;;;5.53;;
39656;SDS011;25337;51.478;7.510;2022-08-11T19:42:16;12.50;;;5.32;;
39656;SDS011;25337;51.478;7.510;2022-08-11T19:45:01;10.77;;;4.80;;
39656;SDS011;25337;51.478;7.510;2022-08-11T19:47:46;11.23;;;5.38;;